sensor_id;sensor_type;location;lat;lon;timestamp;P1;durP1;ratioP1;P2;durP2;ratioP2
9392;SDS011;4736;52.508;13.422;2023-04-25T00:01:37;5.23;;;4.93;;
9392;SDS011;4736;52.508;13.422;2023-04-25T00:04:40;5.10;;;4.80;;
9392;SDS011;4736;52.508;13.422;2023-04-25T00:07:44;4.63;;;4.53;;
9392;SDS011;4736;52.508;13.422;2023-04-25T00:10:47;4.53;;;4.30;;
9392;SDS011;4736;52.508;13.422;2023-04-25T00:13:52;4.57;;;4.37;;
9392;SDS011;4736;52.508;13.422;2023-04-25T00:16:55;4.40;;;4.20;;
9392;SDS011;4736;52.508;13.422;2023-04-25T00:19:59;5.00;;;4.70;;
9392;SDS011;4736;52.508;13.422;2023-04-25T00:23:02;5.40;;;4.77;;
9392;SDS011;4736;52.508;13.422;2023-04-25T00:26:05;4.53;;;4.33;;
9392;SDS011;4736;52.508;13.422;2023-04-25T00:29:10;4.87;;;4.50;;
9392;SDS011;4736;52.508;13.422;2023-04-25T00:32:13;4.20;;;4.03;;
9392;SDS011;4736;52.508;13.422;2023-04-25T00:35:16;5.40;;;5.00;;
9392;SDS011;4736;52.508;13.422;2023-04-25T00:38:19;5.30;;;4.80;;
9392;SDS011;4736;52.508;13.422;2023-04-25T00:41:23;8.10;;;5.23;;
9392;SDS011;4736;52.508;13.422;2023-04-25T00:44:30;4.70;;;4.50;;
9392;SDS011;4736;52.508;13.422;2023-04-25T00:47:33;5.07;;;4.57;;
9392;SDS011;4736;52.508;13.422;2023-04-25T00:50:38;7.90;;;4.77;;
9392;SDS011;4736;52.508;13.422;2023-04-25T00:53:42;5.00;;;4.30;;
9392;SDS011;4736;52.508;13.422;2023-04-25T00:56:45;4.43;;;4.20;;
9392;SDS011;4736;52.508;13.422;2023-04-25T00:59:50;4.90;;;4.53;;
9392;SDS011;4736;52.508;13.422;2023-04-25T01:02:54;5.07;;;4.50;;
9392;SDS011;4736;52.508;13.422;2023-04-25T02:02:41;5.90;;;5.27;;
9392;SDS011;4736;52.508;13.422;2023-04-25T02:05:45;9.33;;;5.73;;
9392;SDS011;4736;52.508;13.422;2023-04-25T02:08:48;6.60;;;5.87;;
9392;SDS011;4736;52.508;13.422;2023-04-25T02:11:52;6.47;;;5.87;;
9392;SDS011;4736;52.508;13.422;2023-04-25T02:14:55;6.27;;;5.83;;
9392;SDS011;4736;52.508;13.422;2023-04-25T02:18:00;6.50;;;5.80;;
9392;SDS011;4736;52.508;13.422;2023-04-25T02:21:03;6.30;;;5.80;;
9392;SDS011;4736;52.508;13.422;2023-04-25T02:24:07;6.70;;;6.07;;
9392;SDS011;4736;52.508;13.422;2023-04-25T02:27:10;6.23;;;5.83;;
9392;SDS011;4736;52.508;13.422;2023-04-25T02:30:14;8.67;;;6.70;;
9392;SDS011;4736;52.508;13.422;2023-04-25T02:33:19;6.13;;;5.63;;
9392;SDS011;4736;52.508;13.422;2023-04-25T02:36:23;6.83;;;6.13;;
9392;SDS011;4736;52.508;13.422;2023-04-25T02:39:27;6.13;;;5.57;;
9392;SDS011;4736;52.508;13.422;2023-04-25T02:42:30;7.70;;;5.97;;
9392;SDS011;4736;52.508;13.422;2023-04-25T02:45:34;7.97;;;6.23;;
9392;SDS011;4736;52.508;13.422;2023-04-25T02:48:40;10.13;;;6.83;;
9392;SDS011;4736;52.508;13.422;2023-04-25T02:51:43;6.53;;;5.97;;
9392;SDS011;4736;52.508;13.422;2023-04-25T02:54:46;7.30;;;5.67;;
9392;SDS011;4736;52.508;13.422;2023-04-25T02:57:49;6.23;;;5.73;;
9392;SDS011;4736;52.508;13.422;2023-04-25T03:00:52;6.93;;;6.40;;
9392;SDS011;4736;52.508;13.422;2023-04-25T03:03:57;7.97;;;6.53;;
9392;SDS011;4736;52.508;13.422;2023-04-25T03:07:00;7.27;;;6.57;;
9392;SDS011;4736;52.508;13.422;2023-04-25T03:10:04;7.37;;;6.57;;
9392;SDS011;4736;52.508;13.422;2023-04-25T03:13:08;6.77;;;6.17;;
9392;SDS011;4736;52.508;13.422;2023-04-25T03:16:11;6.67;;;6.17;;
9392;SDS011;4736;52.508;13.422;2023-04-25T03:19:17;6.40;;;5.90;;
9392;SDS011;4736;52.508;13.422;2023-04-25T03:22:21;8.73;;;6.47;;
9392;SDS011;4736;52.508;13.422;2023-04-25T03:25:25;7.60;;;6.90;;
9392;SDS011;4736;52.508;13.422;2023-04-25T03:28:28;6.90;;;6.33;;
9392;SDS011;4736;52.508;13.422;2023-04-25T03:31:31;8.67;;;6.70;;
9392;SDS011;4736;52.508;13.422;2023-04-25T03:34:35;6.73;;;6.33;;
9392;SDS011;4736;52.508;13.422;2023-04-25T03:37:38;7.03;;;6.63;;
9392;SDS011;4736;52.508;13.422;2023-04-25T03:40:46;7.40;;;6.80;;
9392;SDS011;4736;52.508;13.422;2023-04-25T03:43:51;7.43;;;6.67;;
9392;SDS011;4736;52.508;13.422;2023-04-25T03:46:54;7.23;;;6.53;;
9392;SDS011;4736;52.508;13.422;2023-04-25T03:50:00;7.00;;;6.30;;
9392;SDS011;4736;52.508;13.422;2023-04-25T03:53:04;7.77;;;6.60;;
9392;SDS011;4736;52.508;13.422;2023-04-25T03:56:07;6.67;;;5.90;;
9392;SDS011;4736;52.508;13.422;2023-04-25T03:59:10;8.50;;;6.53;;
9392;SDS011;4736;52.508;13.422;2023-04-25T04:02:13;7.30;;;6.60;;
9392;SDS011;4736;52.508;13.422;2023-04-25T04:05:18;7.20;;;6.57;;
9392;SDS011;4736;52.508;13.422;2023-04-25T04:08:22;9.13;;;6.90;;
9392;SDS011;4736;52.508;13.422;2023-04-25T04:11:25;7.10;;;6.50;;
9392;SDS011;4736;52.508;13.422;2023-04-25T04:14:31;7.13;;;6.50;;
9392;SDS011;4736;52.508;13.422;2023-04-25T04:17:34;6.63;;;6.03;;
9392;SDS011;4736;52.508;13.422;2023-04-25T04:20:38;7.13;;;6.50;;
9392;SDS011;4736;52.508;13.422;2023-04-25T04:23:43;6.83;;;6.23;;
9392;SDS011;4736;52.508;13.422;2023-04-25T04:26:47;7.97;;;6.57;;
9392;SDS011;4736;52.508;13.422;2023-04-25T04:29:51;7.10;;;6.50;;
9392;SDS011;4736;52.508;13.422;2023-04-25T04:32:54;10.07;;;7.30;;
9392;SDS011;4736;52.508;13.422;2023-04-25T04:35:59;7.17;;;6.57;;
9392;SDS011;4736;52.508;13.422;2023-04-25T04:39:05;7.03;;;6.37;;
9392;SDS011;4736;52.508;13.422;2023-04-25T04:42:10;6.53;;;5.80;;
9392;SDS011;4736;52.508;13.422;2023-04-25T04:45:14;12.87;;;6.70;;
9392;SDS011;4736;52.508;13.422;2023-04-25T04:48:17;8.70;;;6.10;;
9392;SDS011;4736;52.508;13.422;2023-04-25T04:51:23;9.80;;;6.20;;
9392;SDS011;4736;52.508;13.422;2023-04-25T04:54:26;8.10;;;6.80;;
9392;SDS011;4736;52.508;13.422;2023-04-25T04:57:31;8.97;;;6.53;;
9392;SDS011;4736;52.508;13.422;2023-04-25T05:00:34;6.73;;;6.13;;
9392;SDS011;4736;52.508;13.422;2023-04-25T05:03:38;8.07;;;5.90;;
9392;SDS011;4736;52.508;13.422;2023-04-25T05:06:43;7.57;;;6.37;;
9392;SDS011;4736;52.508;13.422;2023-04-25T05:09:49;6.83;;;6.27;;
9392;SDS011;4736;52.508;13.422;2023-04-25T05:12:52;7.07;;;6.47;;
9392;SDS011;4736;52.508;13.422;2023-04-25T05:15:55;6.67;;;6.07;;
9392;SDS011;4736;52.508;13.422;2023-04-25T05:18:58;8.80;;;6.17;;
9392;SDS011;4736;52.508;13.422;2023-04-25T05:22:02;6.97;;;6.03;;
9392;SDS011;4736;52.508;13.422;2023-04-25T05:25:06;8.20;;;6.23;;
9392;SDS011;4736;52.508;13.422;2023-04-25T05:28:10;7.10;;;6.50;;
9392;SDS011;4736;52.508;13.422;2023-04-25T05:31:14;9.07;;;5.90;;
9392;SDS011;4736;52.508;13.422;2023-04-25T05:34:17;7.23;;;6.13;;
9392;SDS011;4736;52.508;13.422;2023-04-25T05:37:22;6.80;;;6.20;;
9392;SDS011;4736;52.508;13.422;2023-04-25T05:40:25;8.20;;;5.90;;
9392;SDS011;4736;52.508;13.422;2023-04-25T05:43:28;6.67;;;6.00;;
9392;SDS011;4736;52.508;13.422;2023-04-25T05:46:31;6.53;;;6.03;;
9392;SDS011;4736;52.508;13.422;2023-04-25T05:49:34;6.80;;;6.30;;
9392;SDS011;4736;52.508;13.422;2023-04-25T05:52:38;7.67;;;6.27;;
9392;SDS011;4736;52.508;13.422;2023-04-25T05:55:42;7.47;;;6.73;;
9392;SDS011;4736;52.508;13.422;2023-04-25T05:58:45;7.53;;;6.83;;
9392;SDS011;4736;52.508;13.422;2023-04-25T06:01:48;7.03;;;6.60;;
9392;SDS011;4736;52.508;13.422;2023-04-25T06:04:51;7.63;;;6.80;;
9392;SDS011;4736;52.508;13.422;2023-04-25T06:07:56;9.47;;;7.57;;
9392;SDS011;4736;52.508;13.422;2023-04-25T06:10:59;7.80;;;6.97;;
9392;SDS011;4736;52.508;13.422;2023-04-25T06:14:02;11.23;;;6.90;;
9392;SDS011;4736;52.508;13.422;2023-04-25T06:17:05;7.50;;;6.80;;
9392;SDS011;4736;52.508;13.422;2023-04-25T06:20:10;8.53;;;7.23;;
9392;SDS011;4736;52.508;13.422;2023-04-25T06:23:15;12.33;;;7.40;;
9392;SDS011;4736;52.508;13.422;2023-04-25T06:26:19;8.53;;;7.93;;
9392;SDS011;4736;52.508;13.422;2023-04-25T06:29:22;9.87;;;7.30;;
9392;SDS011;4736;52.508;13.422;2023-04-25T06:32:25;8.27;;;7.37;;
9392;SDS011;4736;52.508;13.422;2023-04-25T06:35:29;7.93;;;7.13;;
9392;SDS011;4736;52.508;13.422;2023-04-25T06:38:34;10.83;;;7.57;;
9392;SDS011;4736;52.508;13.422;2023-04-25T06:41:37;10.83;;;7.10;;
9392;SDS011;4736;52.508;13.422;2023-04-25T06:44:40;9.33;;;7.60;;
9392;SDS011;4736;52.508;13.422;2023-04-25T06:47:43;8.10;;;7.03;;
9392;SDS011;4736;52.508;13.422;2023-04-25T06:50:47;8.23;;;7.43;;
9392;SDS011;4736;52.508;13.422;2023-04-25T06:53:51;8.20;;;7.43;;
9392;SDS011;4736;52.508;13.422;2023-04-25T06:56:54;8.03;;;6.47;;
9392;SDS011;4736;52.508;13.422;2023-04-25T06:59:58;9.00;;;7.10;;
9392;SDS011;4736;52.508;13.422;2023-04-25T07:03:02;8.07;;;7.20;;
9392;SDS011;4736;52.508;13.422;2023-04-25T07:06:06;8.27;;;7.50;;
9392;SDS011;4736;52.508;13.422;2023-04-25T07:09:11;8.00;;;7.20;;
9392;SDS011;4736;52.508;13.422;2023-04-25T07:12:14;7.57;;;6.50;;
9392;SDS011;4736;52.508;13.422;2023-04-25T07:15:17;7.10;;;6.50;;
9392;SDS011;4736;52.508;13.422;2023-04-25T07:18:20;7.90;;;6.70;;
9392;SDS011;4736;52.508;13.422;2023-04-25T07:21:23;7.07;;;6.40;;
9392;SDS011;4736;52.508;13.422;2023-04-25T07:24:28;7.97;;;6.73;;
9392;SDS011;4736;52.508;13.422;2023-04-25T07:27:31;7.40;;;6.70;;
9392;SDS011;4736;52.508;13.422;2023-04-25T07:30:34;7.27;;;6.53;;
9392;SDS011;4736;52.508;13.422;2023-04-25T07:33:38;7.57;;;6.87;;
9392;SDS011;4736;52.508;13.422;2023-04-25T07:36:40;8.67;;;7.20;;
9392;SDS011;4736;52.508;13.422;2023-04-25T07:39:45;8.00;;;7.20;;
9392;SDS011;4736;52.508;13.422;2023-04-25T07:42:48;9.87;;;7.40;;
9392;SDS011;4736;52.508;13.422;2023-04-25T07:45:51;10.77;;;7.10;;
9392;SDS011;4736;52.508;13.422;2023-04-25T07:48:55;8.67;;;6.13;;
9392;SDS011;4736;52.508;13.422;2023-04-25T07:51:58;11.77;;;6.30;;
9392;SDS011;4736;52.508;13.422;2023-04-25T07:55:03;11.80;;;6.87;;
9392;SDS011;4736;52.508;13.422;2023-04-25T07:58:06;11.90;;;6.43;;
9392;SDS011;4736;52.508;13.422;2023-04-25T08:01:10;10.77;;;6.30;;
9392;SDS011;4736;52.508;13.422;2023-04-25T08:04:13;11.13;;;6.70;;
9392;SDS011;4736;52.508;13.422;2023-04-25T08:07:16;17.00;;;6.30;;
9392;SDS011;4736;52.508;13.422;2023-04-25T08:10:20;11.60;;;6.43;;
9392;SDS011;4736;52.508;13.422;2023-04-25T08:13:24;13.00;;;6.80;;
9392;SDS011;4736;52.508;13.422;2023-04-25T08:16:27;12.10;;;6.50;;
9392;SDS011;4736;52.508;13.422;2023-04-25T08:19:31;9.33;;;6.37;;
9392;SDS011;4736;52.508;13.422;2023-04-25T08:22:34;14.83;;;6.60;;
9392;SDS011;4736;52.508;13.422;2023-04-25T08:25:38;13.77;;;5.93;;
9392;SDS011;4736;52.508;13.422;2023-04-25T08:28:41;16.63;;;6.50;;
9392;SDS011;4736;52.508;13.422;2023-04-25T08:31:44;20.33;;;6.53;;
9392;SDS011;4736;52.508;13.422;2023-04-25T08:34:48;9.27;;;6.03;;
9392;SDS011;4736;52.508;13.422;2023-04-25T08:37:52;16.17;;;6.33;;
9392;SDS011;4736;52.508;13.422;2023-04-25T08:40:56;18.77;;;6.67;;
9392;SDS011;4736;52.508;13.422;2023-04-25T08:44:02;18.97;;;8.87;;
9392;SDS011;4736;52.508;13.422;2023-04-25T08:47:06;18.13;;;6.63;;
9392;SDS011;4736;52.508;13.422;2023-04-25T08:50:09;12.43;;;5.70;;
9392;SDS011;4736;52.508;13.422;2023-04-25T08:53:13;13.67;;;6.30;;
9392;SDS011;4736;52.508;13.422;2023-04-25T08:56:21;13.23;;;4.97;;
9392;SDS011;4736;52.508;13.422;2023-04-25T08:59:25;16.97;;;5.63;;
9392;SDS011;4736;52.508;13.422;2023-04-25T09:02:29;15.00;;;5.00;;
9392;SDS011;4736;52.508;13.422;2023-04-25T09:05:32;10.87;;;5.30;;
9392;SDS011;4736;52.508;13.422;2023-04-25T09:08:36;11.60;;;5.47;;
9392;SDS011;4736;52.508;13.422;2023-04-25T09:11:42;10.87;;;5.20;;
9392;SDS011;4736;52.508;13.422;2023-04-25T09:15:00;14.00;;;5.97;;
9392;SDS011;4736;52.508;13.422;2023-04-25T09:18:10;9.53;;;4.87;;
9392;SDS011;4736;52.508;13.422;2023-04-25T09:21:13;10.47;;;4.97;;
9392;SDS011;4736;52.508;13.422;2023-04-25T09:24:18;11.67;;;5.10;;
9392;SDS011;4736;52.508;13.422;2023-04-25T09:27:33;7.50;;;4.07;;
9392;SDS011;4736;52.508;13.422;2023-04-25T09:30:36;6.50;;;4.17;;
9392;SDS011;4736;52.508;13.422;2023-04-25T09:33:42;10.40;;;4.73;;
9392;SDS011;4736;52.508;13.422;2023-04-25T09:36:45;9.97;;;4.70;;
9392;SDS011;4736;52.508;13.422;2023-04-25T09:39:49;8.10;;;4.43;;
9392;SDS011;4736;52.508;13.422;2023-04-25T09:42:55;13.43;;;5.40;;
9392;SDS011;4736;52.508;13.422;2023-04-25T09:45:59;8.63;;;4.43;;
9392;SDS011;4736;52.508;13.422;2023-04-25T09:49:06;7.83;;;4.07;;
9392;SDS011;4736;52.508;13.422;2023-04-25T09:52:13;8.23;;;4.77;;
9392;SDS011;4736;52.508;13.422;2023-04-25T09:55:17;9.27;;;4.90;;
9392;SDS011;4736;52.508;13.422;2023-04-25T09:58:21;10.20;;;4.37;;
9392;SDS011;4736;52.508;13.422;2023-04-25T10:01:27;5.43;;;4.33;;
9392;SDS011;4736;52.508;13.422;2023-04-25T10:04:30;9.47;;;4.43;;
9392;SDS011;4736;52.508;13.422;2023-04-25T10:07:37;8.57;;;4.40;;
9392;SDS011;4736;52.508;13.422;2023-04-25T10:10:42;7.20;;;4.47;;
9392;SDS011;4736;52.508;13.422;2023-04-25T10:13:47;11.07;;;4.80;;
9392;SDS011;4736;52.508;13.422;2023-04-25T10:16:51;8.83;;;4.70;;
9392;SDS011;4736;52.508;13.422;2023-04-25T10:19:56;10.47;;;4.50;;
9392;SDS011;4736;52.508;13.422;2023-04-25T10:23:03;5.23;;;4.43;;
9392;SDS011;4736;52.508;13.422;2023-04-25T10:26:14;4.10;;;3.70;;
9392;SDS011;4736;52.508;13.422;2023-04-25T10:29:22;5.07;;;3.93;;
9392;SDS011;4736;52.508;13.422;2023-04-25T10:32:27;7.83;;;4.63;;
9392;SDS011;4736;52.508;13.422;2023-04-25T10:35:31;9.53;;;4.77;;
9392;SDS011;4736;52.508;13.422;2023-04-25T10:38:36;5.50;;;4.27;;
9392;SDS011;4736;52.508;13.422;2023-04-25T10:41:46;6.90;;;3.70;;
9392;SDS011;4736;52.508;13.422;2023-04-25T10:45:02;5.83;;;4.20;;
9392;SDS011;4736;52.508;13.422;2023-04-25T10:51:27;5.03;;;4.00;;
9392;SDS011;4736;52.508;13.422;2023-04-25T10:54:55;5.83;;;4.17;;
9392;SDS011;4736;52.508;13.422;2023-04-25T10:57:59;6.30;;;3.67;;
9392;SDS011;4736;52.508;13.422;2023-04-25T11:01:04;5.67;;;3.70;;
9392;SDS011;4736;52.508;13.422;2023-04-25T11:04:22;7.37;;;4.00;;
9392;SDS011;4736;52.508;13.422;2023-04-25T11:07:30;5.80;;;4.47;;
9392;SDS011;4736;52.508;13.422;2023-04-25T11:10:40;9.30;;;4.17;;
9392;SDS011;4736;52.508;13.422;2023-04-25T11:13:43;4.60;;;4.03;;
9392;SDS011;4736;52.508;13.422;2023-04-25T11:16:53;7.80;;;4.20;;
9392;SDS011;4736;52.508;13.422;2023-04-25T11:20:00;6.07;;;4.13;;
9392;SDS011;4736;52.508;13.422;2023-04-25T11:23:07;4.53;;;3.83;;
9392;SDS011;4736;52.508;13.422;2023-04-25T11:26:10;7.37;;;3.83;;
9392;SDS011;4736;52.508;13.422;2023-04-25T11:29:13;6.83;;;4.20;;
9392;SDS011;4736;52.508;13.422;2023-04-25T11:32:18;7.03;;;4.70;;
9392;SDS011;4736;52.508;13.422;2023-04-25T11:35:22;7.83;;;4.40;;
9392;SDS011;4736;52.508;13.422;2023-04-25T11:38:26;6.80;;;4.20;;
9392;SDS011;4736;52.508;13.422;2023-04-25T11:41:30;8.20;;;3.80;;
9392;SDS011;4736;52.508;13.422;2023-04-25T11:44:33;3.53;;;3.20;;
9392;SDS011;4736;52.508;13.422;2023-04-25T11:47:38;6.07;;;3.87;;
9392;SDS011;4736;52.508;13.422;2023-04-25T11:50:41;8.93;;;3.80;;
9392;SDS011;4736;52.508;13.422;2023-04-25T11:53:45;7.70;;;4.07;;
9392;SDS011;4736;52.508;13.422;2023-04-25T11:56:48;5.43;;;3.63;;
9392;SDS011;4736;52.508;13.422;2023-04-25T11:59:51;8.10;;;3.20;;
9392;SDS011;4736;52.508;13.422;2023-04-25T12:02:56;5.90;;;3.50;;
9392;SDS011;4736;52.508;13.422;2023-04-25T12:06:02;6.77;;;3.70;;
9392;SDS011;4736;52.508;13.422;2023-04-25T12:09:07;5.30;;;4.00;;
9392;SDS011;4736;52.508;13.422;2023-04-25T12:12:11;4.63;;;3.90;;
9392;SDS011;4736;52.508;13.422;2023-04-25T12:15:15;7.47;;;4.30;;
9392;SDS011;4736;52.508;13.422;2023-04-25T12:18:24;8.60;;;3.77;;
9392;SDS011;4736;52.508;13.422;2023-04-25T12:21:28;7.20;;;5.17;;
9392;SDS011;4736;52.508;13.422;2023-04-25T12:24:35;5.50;;;4.30;;
9392;SDS011;4736;52.508;13.422;2023-04-25T12:27:40;5.37;;;4.00;;
9392;SDS011;4736;52.508;13.422;2023-04-25T12:30:57;4.10;;;3.63;;
9392;SDS011;4736;52.508;13.422;2023-04-25T12:34:03;6.83;;;3.77;;
9392;SDS011;4736;52.508;13.422;2023-04-25T12:37:06;4.97;;;4.30;;
9392;SDS011;4736;52.508;13.422;2023-04-25T12:40:09;5.13;;;3.60;;
9392;SDS011;4736;52.508;13.422;2023-04-25T12:43:13;6.90;;;3.43;;
9392;SDS011;4736;52.508;13.422;2023-04-25T12:46:16;7.33;;;3.67;;
9392;SDS011;4736;52.508;13.422;2023-04-25T12:49:21;6.03;;;3.97;;
9392;SDS011;4736;52.508;13.422;2023-04-25T12:52:24;5.93;;;4.13;;
9392;SDS011;4736;52.508;13.422;2023-04-25T12:55:27;5.10;;;3.70;;
9392;SDS011;4736;52.508;13.422;2023-04-25T12:58:30;5.33;;;3.70;;
9392;SDS011;4736;52.508;13.422;2023-04-25T13:01:34;7.37;;;4.37;;
9392;SDS011;4736;52.508;13.422;2023-04-25T13:04:39;4.33;;;3.93;;
9392;SDS011;4736;52.508;13.422;2023-04-25T13:07:42;4.60;;;3.37;;
9392;SDS011;4736;52.508;13.422;2023-04-25T13:10:45;4.53;;;3.60;;
9392;SDS011;4736;52.508;13.422;2023-04-25T13:13:49;3.80;;;3.50;;
9392;SDS011;4736;52.508;13.422;2023-04-25T13:16:53;4.97;;;3.30;;
9392;SDS011;4736;52.508;13.422;2023-04-25T13:19:58;5.00;;;3.30;;
9392;SDS011;4736;52.508;13.422;2023-04-25T13:23:01;3.70;;;3.37;;
9392;SDS011;4736;52.508;13.422;2023-04-25T13:26:04;5.80;;;3.23;;
9392;SDS011;4736;52.508;13.422;2023-04-25T13:29:07;4.33;;;3.10;;
9392;SDS011;4736;52.508;13.422;2023-04-25T13:32:10;3.20;;;2.90;;
9392;SDS011;4736;52.508;13.422;2023-04-25T13:35:16;4.13;;;3.00;;
9392;SDS011;4736;52.508;13.422;2023-04-25T13:38:20;4.30;;;3.27;;
9392;SDS011;4736;52.508;13.422;2023-04-25T13:41:24;4.53;;;3.17;;
9392;SDS011;4736;52.508;13.422;2023-04-25T13:44:27;3.37;;;3.17;;
9392;SDS011;4736;52.508;13.422;2023-04-25T13:47:30;5.17;;;3.67;;
9392;SDS011;4736;52.508;13.422;2023-04-25T13:50:34;3.73;;;3.20;;
9392;SDS011;4736;52.508;13.422;2023-04-25T13:53:37;3.57;;;3.40;;
9392;SDS011;4736;52.508;13.422;2023-04-25T13:56:40;3.90;;;3.60;;
9392;SDS011;4736;52.508;13.422;2023-04-25T13:59:44;3.40;;;3.10;;
9392;SDS011;4736;52.508;13.422;2023-04-25T14:02:47;3.80;;;3.37;;
9392;SDS011;4736;52.508;13.422;2023-04-25T14:05:52;3.53;;;3.20;;
9392;SDS011;4736;52.508;13.422;2023-04-25T14:08:58;5.00;;;3.73;;
9392;SDS011;4736;52.508;13.422;2023-04-25T14:12:02;3.80;;;3.40;;
9392;SDS011;4736;52.508;13.422;2023-04-25T14:15:07;3.87;;;3.57;;
9392;SDS011;4736;52.508;13.422;2023-04-25T14:18:12;7.83;;;3.40;;
9392;SDS011;4736;52.508;13.422;2023-04-25T14:21:16;4.10;;;3.40;;
9392;SDS011;4736;52.508;13.422;2023-04-25T14:24:21;8.70;;;3.90;;
9392;SDS011;4736;52.508;13.422;2023-04-25T14:27:25;5.10;;;3.40;;
9392;SDS011;4736;52.508;13.422;2023-04-25T14:30:29;3.80;;;3.47;;
9392;SDS011;4736;52.508;13.422;2023-04-25T14:33:33;3.53;;;3.30;;
9392;SDS011;4736;52.508;13.422;2023-04-25T14:36:37;3.40;;;3.20;;
9392;SDS011;4736;52.508;13.422;2023-04-25T14:39:41;5.90;;;3.00;;
9392;SDS011;4736;52.508;13.422;2023-04-25T14:42:46;4.30;;;3.17;;
9392;SDS011;4736;52.508;13.422;2023-04-25T14:45:49;4.00;;;2.90;;
9392;SDS011;4736;52.508;13.422;2023-04-25T14:48:52;4.63;;;3.53;;
9392;SDS011;4736;52.508;13.422;2023-04-25T14:51:58;4.53;;;3.43;;
9392;SDS011;4736;52.508;13.422;2023-04-25T14:55:02;4.00;;;3.60;;
9392;SDS011;4736;52.508;13.422;2023-04-25T14:58:06;4.40;;;3.93;;
9392;SDS011;4736;52.508;13.422;2023-04-25T15:01:10;4.20;;;3.80;;
9392;SDS011;4736;52.508;13.422;2023-04-25T15:04:14;4.47;;;3.80;;
9392;SDS011;4736;52.508;13.422;2023-04-25T15:07:20;3.67;;;3.37;;
9392;SDS011;4736;52.508;13.422;2023-04-25T15:10:23;3.40;;;3.30;;
9392;SDS011;4736;52.508;13.422;2023-04-25T15:13:26;3.83;;;3.37;;
9392;SDS011;4736;52.508;13.422;2023-04-25T15:16:29;3.17;;;2.90;;
9392;SDS011;4736;52.508;13.422;2023-04-25T15:19:35;3.93;;;3.00;;
9392;SDS011;4736;52.508;13.422;2023-04-25T15:22:40;4.20;;;3.00;;
9392;SDS011;4736;52.508;13.422;2023-04-25T15:25:43;3.80;;;3.00;;
9392;SDS011;4736;52.508;13.422;2023-04-25T15:28:47;5.20;;;3.50;;
9392;SDS011;4736;52.508;13.422;2023-04-25T15:31:50;3.10;;;2.90;;
9392;SDS011;4736;52.508;13.422;2023-04-25T15:34:54;3.13;;;2.67;;
9392;SDS011;4736;52.508;13.422;2023-04-25T15:37:59;7.80;;;5.70;;
9392;SDS011;4736;52.508;13.422;2023-04-25T15:41:02;2.87;;;2.77;;
9392;SDS011;4736;52.508;13.422;2023-04-25T15:44:07;2.80;;;2.70;;
9392;SDS011;4736;52.508;13.422;2023-04-25T15:47:11;7.13;;;2.63;;
9392;SDS011;4736;52.508;13.422;2023-04-25T15:50:14;3.17;;;2.87;;
9392;SDS011;4736;52.508;13.422;2023-04-25T15:53:19;3.23;;;3.00;;
9392;SDS011;4736;52.508;13.422;2023-04-25T15:56:22;4.47;;;3.40;;
9392;SDS011;4736;52.508;13.422;2023-04-25T15:59:25;2.70;;;2.50;;
9392;SDS011;4736;52.508;13.422;2023-04-25T16:02:29;3.00;;;2.60;;
9392;SDS011;4736;52.508;13.422;2023-04-25T16:05:32;4.57;;;2.60;;
9392;SDS011;4736;52.508;13.422;2023-04-25T16:08:37;4.27;;;3.03;;
9392;SDS011;4736;52.508;13.422;2023-04-25T16:11:40;3.50;;;2.83;;
9392;SDS011;4736;52.508;13.422;2023-04-25T16:14:43;3.77;;;3.47;;
9392;SDS011;4736;52.508;13.422;2023-04-25T16:17:47;3.27;;;3.00;;
9392;SDS011;4736;52.508;13.422;2023-04-25T16:20:50;2.93;;;2.63;;
9392;SDS011;4736;52.508;13.422;2023-04-25T16:23:56;4.87;;;3.07;;
9392;SDS011;4736;52.508;13.422;2023-04-25T16:26:59;3.57;;;3.10;;
9392;SDS011;4736;52.508;13.422;2023-04-25T16:30:06;3.30;;;3.00;;
9392;SDS011;4736;52.508;13.422;2023-04-25T16:33:11;4.20;;;2.90;;
9392;SDS011;4736;52.508;13.422;2023-04-25T16:36:14;3.47;;;3.00;;
9392;SDS011;4736;52.508;13.422;2023-04-25T16:39:19;2.73;;;2.60;;
9392;SDS011;4736;52.508;13.422;2023-04-25T16:42:23;2.90;;;2.80;;
9392;SDS011;4736;52.508;13.422;2023-04-25T16:45:27;3.13;;;2.83;;
9392;SDS011;4736;52.508;13.422;2023-04-25T16:48:31;2.80;;;2.60;;
9392;SDS011;4736;52.508;13.422;2023-04-25T16:51:34;3.40;;;2.70;;
9392;SDS011;4736;52.508;13.422;2023-04-25T16:54:39;3.83;;;2.90;;
9392;SDS011;4736;52.508;13.422;2023-04-25T16:57:42;3.13;;;2.73;;
9392;SDS011;4736;52.508;13.422;2023-04-25T17:00:45;5.03;;;3.37;;
9392;SDS011;4736;52.508;13.422;2023-04-25T17:03:49;5.53;;;2.93;;
9392;SDS011;4736;52.508;13.422;2023-04-25T17:06:52;3.73;;;2.97;;
9392;SDS011;4736;52.508;13.422;2023-04-25T17:09:57;4.00;;;3.33;;
9392;SDS011;4736;52.508;13.422;2023-04-25T17:13:01;2.93;;;2.73;;
9392;SDS011;4736;52.508;13.422;2023-04-25T17:16:04;3.03;;;2.83;;
9392;SDS011;4736;52.508;13.422;2023-04-25T17:19:10;3.60;;;2.97;;
9392;SDS011;4736;52.508;13.422;2023-04-25T17:22:13;4.17;;;2.87;;
9392;SDS011;4736;52.508;13.422;2023-04-25T17:25:18;3.33;;;3.03;;
9392;SDS011;4736;52.508;13.422;2023-04-25T17:28:21;3.83;;;3.07;;
9392;SDS011;4736;52.508;13.422;2023-04-25T17:31:24;3.20;;;2.97;;
9392;SDS011;4736;52.508;13.422;2023-04-25T17:34:28;3.00;;;2.90;;
9392;SDS011;4736;52.508;13.422;2023-04-25T17:37:32;3.00;;;2.90;;
9392;SDS011;4736;52.508;13.422;2023-04-25T17:40:36;3.13;;;2.87;;
9392;SDS011;4736;52.508;13.422;2023-04-25T17:43:40;3.13;;;2.97;;
9392;SDS011;4736;52.508;13.422;2023-04-25T17:46:43;3.37;;;3.20;;
9392;SDS011;4736;52.508;13.422;2023-04-25T17:49:46;4.57;;;3.87;;
9392;SDS011;4736;52.508;13.422;2023-04-25T17:52:49;3.93;;;2.90;;
9392;SDS011;4736;52.508;13.422;2023-04-25T17:55:54;3.10;;;3.00;;
9392;SDS011;4736;52.508;13.422;2023-04-25T17:58:57;4.10;;;3.23;;
9392;SDS011;4736;52.508;13.422;2023-04-25T18:02:00;3.07;;;2.87;;
9392;SDS011;4736;52.508;13.422;2023-04-25T18:05:04;3.87;;;3.60;;
9392;SDS011;4736;52.508;13.422;2023-04-25T18:08:11;3.77;;;3.47;;
9392;SDS011;4736;52.508;13.422;2023-04-25T18:11:16;3.80;;;3.60;;
9392;SDS011;4736;52.508;13.422;2023-04-25T18:14:20;3.63;;;3.33;;
9392;SDS011;4736;52.508;13.422;2023-04-25T18:17:24;3.20;;;2.90;;
9392;SDS011;4736;52.508;13.422;2023-04-25T18:20:27;3.73;;;3.37;;
9392;SDS011;4736;52.508;13.422;2023-04-25T18:23:30;3.83;;;3.53;;
9392;SDS011;4736;52.508;13.422;2023-04-25T18:26:36;3.40;;;3.10;;
9392;SDS011;4736;52.508;13.422;2023-04-25T18:29:39;3.80;;;3.33;;
9392;SDS011;4736;52.508;13.422;2023-04-25T18:32:45;3.50;;;3.20;;
9392;SDS011;4736;52.508;13.422;2023-04-25T18:35:48;5.33;;;3.07;;
9392;SDS011;4736;52.508;13.422;2023-04-25T18:38:55;3.10;;;2.90;;
9392;SDS011;4736;52.508;13.422;2023-04-25T18:42:04;7.23;;;3.90;;
9392;SDS011;4736;52.508;13.422;2023-04-25T18:45:09;4.07;;;3.20;;
9392;SDS011;4736;52.508;13.422;2023-04-25T18:48:12;4.07;;;3.70;;
9392;SDS011;4736;52.508;13.422;2023-04-25T18:51:16;3.67;;;3.43;;
9392;SDS011;4736;52.508;13.422;2023-04-25T18:54:19;4.00;;;3.60;;
9392;SDS011;4736;52.508;13.422;2023-04-25T18:57:23;6.93;;;4.00;;
9392;SDS011;4736;52.508;13.422;2023-04-25T19:00:27;3.87;;;3.50;;
9392;SDS011;4736;52.508;13.422;2023-04-25T19:03:30;4.30;;;3.80;;
9392;SDS011;4736;52.508;13.422;2023-04-25T19:06:34;3.80;;;3.50;;
9392;SDS011;4736;52.508;13.422;2023-04-25T19:09:37;3.73;;;3.27;;
9392;SDS011;4736;52.508;13.422;2023-04-25T19:12:41;3.30;;;2.90;;
9392;SDS011;4736;52.508;13.422;2023-04-25T19:15:44;5.90;;;3.30;;
9392;SDS011;4736;52.508;13.422;2023-04-25T19:18:48;3.93;;;3.23;;
9392;SDS011;4736;52.508;13.422;2023-04-25T19:21:53;4.27;;;3.50;;
9392;SDS011;4736;52.508;13.422;2023-04-25T19:24:56;3.43;;;3.10;;
9392;SDS011;4736;52.508;13.422;2023-04-25T19:28:12;3.67;;;3.27;;
9392;SDS011;4736;52.508;13.422;2023-04-25T19:31:16;3.50;;;3.20;;
9392;SDS011;4736;52.508;13.422;2023-04-25T19:34:20;3.40;;;3.20;;
9392;SDS011;4736;52.508;13.422;2023-04-25T19:37:23;3.30;;;3.10;;
9392;SDS011;4736;52.508;13.422;2023-04-25T19:40:26;4.00;;;3.17;;
9392;SDS011;4736;52.508;13.422;2023-04-25T19:43:32;5.93;;;3.30;;
9392;SDS011;4736;52.508;13.422;2023-04-25T19:46:36;3.83;;;3.30;;